createdAt,value
2019-03-21T00:00:00.333Z,102626.71
2019-03-21T00:02:34.914Z,102622.78
2019-03-21T00:05:10.541Z,102624.47
2019-03-21T00:07:45.905Z,102620.09
2019-03-21T00:11:18.151Z,102625.79
2019-03-21T00:14:07.042Z,102623.52
2019-03-21T00:16:39.505Z,102625.73
2019-03-21T00:19:14.694Z,102632.26
2019-03-21T00:21:49.489Z,102632.69
2019-03-21T00:24:26.392Z,102638.77
2019-03-21T00:27:01.046Z,102639.66
2019-03-21T00:29:37.832Z,102636.59
2019-03-21T00:32:14.219Z,102636.98
2019-03-21T00:34:48.857Z,102640.09
2019-03-21T00:37:23.372Z,102638.34
2019-03-21T00:40:05.770Z,102639.66
2019-03-21T00:42:40.360Z,102633.61
2019-03-21T00:45:16.567Z,102637.55
2019-03-21T00:47:51.551Z,102634.93
2019-03-21T00:50:27.259Z,102631.42
2019-03-21T00:53:02.006Z,102630.98
2019-03-21T00:55:38.183Z,102637.07
2019-03-21T00:58:13.530Z,102638.39
2019-03-21T01:00:51.909Z,102643.15
2019-03-21T01:03:26.664Z,102644.46
2019-03-21T01:06:01.988Z,102633.52
2019-03-21T01:08:39.272Z,102636.53
2019-03-21T01:11:14.340Z,102633.09
2019-03-21T01:13:49.620Z,102631.78
2019-03-21T01:16:25.781Z,102626.48
2019-03-21T01:19:00.790Z,102632.61
2019-03-21T01:21:35.331Z,102624.33
2019-03-21T01:24:10.232Z,102623.91
2019-03-21T01:26:45.023Z,102623.95
2019-03-21T01:29:19.563Z,102610.73
2019-03-21T01:31:54.883Z,102605.00
2019-03-21T01:34:30.338Z,102601.98
2019-03-21T01:37:05.416Z,102608.50
2019-03-21T01:39:40.637Z,102601.94
2019-03-21T01:42:15.513Z,102603.73
2019-03-21T01:44:50.216Z,102598.92
2019-03-21T01:47:25.175Z,102598.48
2019-03-21T01:49:59.705Z,102601.11
2019-03-21T01:52:35.172Z,102605.96
2019-03-21T01:55:11.501Z,102604.13
2019-03-21T01:57:47.352Z,102600.23
2019-03-21T02:00:29.133Z,102607.67
2019-03-21T02:03:04.364Z,102612.05
2019-03-21T02:05:39.266Z,102607.23
2019-03-21T02:08:14.173Z,102609.02
2019-03-21T02:10:49.176Z,102607.72
2019-03-21T02:13:23.709Z,102606.45
2019-03-21T02:16:00.063Z,102598.05
2019-03-21T02:18:36.002Z,102608.11
2019-03-21T02:21:10.504Z,102610.34
2019-03-21T02:23:45.038Z,102605.92
2019-03-21T02:26:21.456Z,102604.65
2019-03-21T02:28:57.332Z,102607.67
2019-03-21T02:31:31.898Z,102598.88
2019-03-21T02:34:07.468Z,102593.23
2019-03-21T02:36:47.083Z,102590.66
2019-03-21T02:39:22.453Z,102591.09
2019-03-21T02:41:59.070Z,102591.53
2019-03-21T02:44:34.643Z,102598.17
2019-03-21T02:47:10.523Z,102593.80
2019-03-21T02:49:45.711Z,102596.39
2019-03-21T02:52:22.705Z,102598.18
2019-03-21T02:54:58.808Z,102599.53
2019-03-21T02:57:33.408Z,102599.10
2019-03-21T03:00:17.154Z,102596.44
2019-03-21T03:02:53.305Z,102596.48
2019-03-21T03:05:30.826Z,102596.03
2019-03-21T03:08:05.817Z,102599.97
2019-03-21T03:10:47.990Z,102609.17
2019-03-21T03:13:22.636Z,102603.47
2019-03-21T03:15:57.186Z,102601.77
2019-03-21T03:18:32.572Z,102599.10
2019-03-21T03:21:07.428Z,102601.29
2019-03-21T03:23:42.443Z,102603.04
2019-03-21T03:26:16.871Z,102596.44
2019-03-21T03:28:51.291Z,102592.92
2019-03-21T03:31:25.895Z,102596.48
2019-03-21T03:34:11.323Z,102596.48
2019-03-21T03:36:45.800Z,102601.77
2019-03-21T05:20:17.443Z,102653.30
2019-03-21T05:34:20.240Z,102651.98
2019-03-21T05:36:57.318Z,102649.36
2019-03-21T05:39:32.166Z,102651.16
2019-03-21T05:42:19.412Z,102652.08
2019-03-21T05:44:57.792Z,102651.16
2019-03-21T05:47:54.348Z,102655.63
2019-03-21T05:50:39.677Z,102654.38
2019-03-21T05:53:15.939Z,102656.20
2019-03-21T05:55:50.455Z,102650.52
2019-03-21T05:58:28.406Z,102655.33
2019-03-21T06:01:03.464Z,102665.00
2019-03-21T06:03:50.700Z,102675.16
2019-03-21T06:07:30.491Z,102678.61
2019-03-21T06:10:06.895Z,102691.48
2019-03-21T06:12:51.834Z,102688.81
2019-03-21T06:15:30.949Z,102692.76
2019-03-21T06:19:03.273Z,102697.17
2019-03-21T06:22:17.175Z,102700.72
2019-03-21T06:25:32.196Z,102702.52
2019-03-21T06:28:06.584Z,102697.80
2019-03-21T06:30:40.961Z,102703.14
2019-03-21T06:33:15.474Z,102707.56
2019-03-21T06:35:49.992Z,102709.44
2019-03-21T06:38:27.432Z,102710.02
2019-03-21T06:41:01.766Z,102706.23
2019-03-21T06:43:36.262Z,102716.92
2019-03-21T06:46:10.595Z,102667.37
2019-03-21T06:48:44.964Z,102713.97
2019-03-21T06:51:19.279Z,102714.09
2019-03-21T06:53:53.615Z,102710.27
2019-03-21T06:56:28.063Z,102714.93
2019-03-21T06:59:02.500Z,102714.97
2019-03-21T07:01:36.933Z,102712.41
2019-03-21T07:04:11.385Z,102714.16
2019-03-21T07:06:46.849Z,102717.27
2019-03-21T07:09:21.214Z,102715.70
2019-03-21T07:11:55.524Z,102712.47
2019-03-21T07:14:29.916Z,102721.80
2019-03-21T07:17:04.654Z,102724.84
2019-03-21T07:19:39.072Z,102721.23
2019-03-21T07:22:13.514Z,102728.63
2019-03-21T07:24:47.870Z,102738.72
2019-03-21T07:27:22.304Z,102736.94
2019-03-21T07:29:57.162Z,102739.53
2019-03-21T07:32:33.560Z,102742.17
2019-03-21T07:35:08.470Z,102739.43
2019-03-21T07:37:43.053Z,102753.06
2019-03-21T07:40:17.452Z,102743.02
2019-03-21T07:42:51.777Z,102746.55
2019-03-21T07:45:26.082Z,102747.94
2019-03-21T07:48:00.404Z,102746.25
2019-03-21T07:50:34.753Z,102754.72
2019-03-21T07:53:09.075Z,102745.50
2019-03-21T07:55:43.517Z,102743.34
2019-03-21T07:58:18.044Z,102746.51
2019-03-21T08:00:53.618Z,102749.55
2019-03-21T08:03:27.894Z,102749.17
2019-03-21T08:06:02.235Z,102749.70
2019-03-21T08:08:36.525Z,102754.12
2019-03-21T08:11:10.844Z,102751.98
2019-03-21T08:13:45.213Z,102749.34
2019-03-21T08:16:19.644Z,102757.38
2019-03-21T08:18:53.983Z,102758.34
2019-03-21T08:21:28.349Z,102757.92
2019-03-21T08:24:02.688Z,102763.22
2019-03-21T08:26:36.953Z,102767.67
2019-03-21T08:29:11.289Z,102766.88
2019-03-21T08:31:46.047Z,102738.58
2019-03-21T08:34:20.367Z,102763.59
2019-03-21T08:36:54.840Z,102736.19
2019-03-21T08:39:31.504Z,102762.33
2019-03-21T08:42:05.943Z,102764.45
2019-03-21T08:44:40.266Z,102761.91
2019-03-21T08:47:14.731Z,102757.20
2019-03-21T08:49:49.100Z,102758.91
2019-03-21T08:52:23.490Z,102753.23
2019-03-21T08:54:57.827Z,102763.25
2019-03-21T08:57:32.131Z,102756.61
2019-03-21T09:00:06.514Z,102760.66
2019-03-21T09:02:40.829Z,102760.26
2019-03-21T09:05:16.708Z,102758.98
2019-03-21T09:07:51.339Z,102753.33
2019-03-21T09:10:26.625Z,102753.33
2019-03-21T09:13:01.973Z,102753.80
2019-03-21T09:15:37.339Z,102760.34
2019-03-21T09:18:12.752Z,102757.73
2019-03-21T09:20:47.355Z,102759.13
2019-03-21T09:23:26.788Z,102761.00
2019-03-21T09:26:04.299Z,102758.84
2019-03-21T09:28:38.728Z,102767.31
2019-03-21T09:31:13.108Z,102767.98
2019-03-21T09:33:47.480Z,102760.16
2019-03-21T09:36:22.425Z,102761.08
2019-03-21T09:38:57.366Z,102753.56
2019-03-21T09:41:32.197Z,102755.79
2019-03-21T09:44:08.598Z,102755.84
2019-03-21T09:46:50.758Z,102754.94
2019-03-21T09:49:19.041Z,102756.67
2019-03-21T09:51:53.331Z,102756.24
2019-03-21T09:54:29.735Z,102750.92
2019-03-21T09:57:04.092Z,102751.38
2019-03-21T09:59:38.984Z,102749.67
2019-03-21T10:02:13.279Z,102756.31
2019-03-21T10:04:47.634Z,102744.41
2019-03-21T10:07:21.933Z,102739.08
2019-03-21T10:09:56.274Z,102740.88
2019-03-21T10:12:30.684Z,102747.48
2019-03-21T10:15:05.032Z,102744.81
2019-03-21T10:17:39.312Z,102747.88
2019-03-21T10:20:13.742Z,102754.07
2019-03-21T10:22:49.081Z,102759.33
2019-03-21T10:25:23.381Z,102764.22
2019-03-21T10:27:57.795Z,102759.40
2019-03-21T10:30:40.302Z,102750.57
2019-03-21T10:33:16.083Z,102753.64
2019-03-21T10:35:50.471Z,102753.66
2019-03-21T10:38:24.844Z,102753.63
2019-03-21T10:41:23.828Z,102754.98
2019-03-21T10:43:58.241Z,102750.55
2019-03-21T10:46:32.587Z,102744.39
2019-03-21T10:49:06.812Z,102750.12
2019-03-21T10:51:41.121Z,102751.44
2019-03-21T10:54:15.519Z,102753.20
2019-03-21T10:56:49.813Z,102747.03
2019-03-21T10:59:24.214Z,102743.05
2019-03-21T11:02:06.810Z,102743.49
2019-03-21T11:04:34.505Z,102743.08
2019-03-21T11:07:05.307Z,102731.59
2019-03-21T11:09:42.028Z,102726.74
2019-03-21T11:12:16.336Z,102726.25
2019-03-21T11:14:50.665Z,102712.98
2019-03-21T11:17:25.020Z,102718.69
2019-03-21T11:19:59.367Z,102713.83
2019-03-21T11:22:33.985Z,102716.00
2019-03-21T11:25:08.774Z,102710.30
2019-03-21T11:27:44.262Z,102710.72
2019-03-21T11:30:25.886Z,102712.89
2019-03-21T11:33:00.279Z,102703.52
2019-03-21T11:35:34.694Z,102701.33
2019-03-21T11:38:09.237Z,102692.81
2019-03-21T11:40:43.701Z,102688.64
2019-03-21T11:43:20.004Z,102686.44
2019-03-21T11:45:55.399Z,102686.61
2019-03-21T11:48:29.991Z,102692.00
2019-03-21T11:51:05.300Z,102691.59
2019-03-21T11:53:39.785Z,102683.73
2019-03-21T11:56:14.292Z,102689.04
2019-03-21T11:58:48.573Z,102688.52
2019-03-21T12:01:25.648Z,102677.44
2019-03-21T12:03:59.947Z,102682.31
2019-03-21T12:06:34.450Z,102666.41
2019-03-21T12:09:10.520Z,102670.38
2019-03-21T12:11:44.879Z,102671.26
2019-03-21T12:14:19.194Z,102679.22
2019-03-21T12:16:53.614Z,102669.39
2019-03-21T12:19:28.064Z,102668.07
2019-03-21T12:22:02.384Z,102668.00
2019-03-21T12:24:37.002Z,102672.02
2019-03-21T12:27:11.350Z,102672.02
2019-03-21T12:29:46.166Z,102675.15
2019-03-21T12:32:21.049Z,102673.03
2019-03-21T12:34:56.352Z,102662.48
2019-03-21T12:37:31.177Z,102668.71
2019-03-21T12:40:06.260Z,102663.87
2019-03-21T12:42:40.610Z,102667.90
2019-03-21T12:45:15.029Z,102668.77
2019-03-21T12:47:49.338Z,102668.77
2019-03-21T12:50:23.727Z,102672.34
2019-03-21T12:52:57.905Z,102659.58
2019-03-21T12:55:31.956Z,102656.97
2019-03-21T12:58:06.646Z,102665.38
2019-03-21T13:00:45.563Z,102656.14
2019-03-21T13:03:19.624Z,102653.47
2019-03-21T13:05:53.699Z,102648.63
2019-03-21T13:08:33.650Z,102650.44
2019-03-21T13:11:05.197Z,102649.98
2019-03-21T13:13:40.319Z,102649.54
2019-03-21T13:16:14.358Z,102650.87
2019-03-21T13:18:48.442Z,102642.05
2019-03-21T13:21:22.531Z,102635.88
2019-03-21T13:23:56.679Z,102636.77
2019-03-21T13:26:31.505Z,102635.42
2019-03-21T13:29:27.248Z,102637.64
2019-03-21T13:32:47.640Z,102634.99
2019-03-21T13:35:48.595Z,102628.38
2019-03-21T13:38:34.548Z,102627.05
2019-03-21T13:41:23.128Z,102629.72
2019-03-21T13:44:04.501Z,102624.84
2019-03-21T13:46:42.824Z,102621.78
2019-03-21T13:49:40.674Z,102612.97
2019-03-21T13:52:20.201Z,102613.84
2019-03-21T13:54:56.404Z,102603.70
2019-03-21T13:57:31.107Z,102601.06
2019-03-21T14:00:07.650Z,102609.47
2019-03-21T14:02:41.888Z,102604.59
2019-03-21T14:05:16.692Z,102605.92
2019-03-21T14:07:50.733Z,102600.20
2019-03-21T14:10:24.826Z,102592.69
2019-03-21T14:12:58.919Z,102593.57
2019-03-21T14:15:33.117Z,102581.22
2019-03-21T14:18:07.248Z,102593.59
2019-03-21T14:20:41.414Z,102584.77
2019-03-21T14:23:17.610Z,102592.70
2019-03-21T14:25:51.887Z,102591.39
2019-03-21T14:28:26.260Z,102592.70
2019-03-21T14:31:02.055Z,102602.39
2019-03-21T14:33:36.226Z,102595.36
2019-03-21T14:36:10.352Z,102596.23
2019-03-21T14:47:02.361Z,102594.91
2019-03-21T14:54:38.171Z,102602.83
2019-03-21T14:57:13.087Z,102602.40
2019-03-21T14:59:55.038Z,102605.48
2019-03-21T15:02:50.823Z,102600.64
2019-03-21T15:05:27.771Z,102609.89
2019-03-21T15:08:02.930Z,102609.00
2019-03-21T15:10:38.597Z,102611.65
2019-03-21T15:13:13.192Z,102604.14
2019-03-21T15:15:53.171Z,102609.87
2019-03-21T15:18:28.912Z,102606.33
2019-03-21T15:21:08.199Z,102612.06
2019-03-21T15:23:45.026Z,102611.64
2019-03-21T15:26:22.174Z,102612.48
2019-03-21T15:29:00.235Z,102616.47
2019-03-21T15:31:37.915Z,102613.75
2019-03-21T15:34:15.708Z,102607.16
2019-03-21T15:36:54.365Z,102616.86
2019-03-21T15:39:32.204Z,102611.12
2019-03-21T15:42:09.271Z,102603.20
2019-03-21T15:44:45.473Z,102600.55
2019-03-21T15:47:19.476Z,102597.92
2019-03-21T15:49:53.570Z,102599.23
2019-03-21T15:52:27.581Z,102587.34
2019-03-21T15:55:02.005Z,102596.59
2019-03-21T15:57:36.018Z,102601.88
2019-03-21T16:00:11.721Z,102604.06
2019-03-21T16:02:46.568Z,102595.66
2019-03-21T16:05:20.713Z,102599.16
2019-03-21T16:07:54.789Z,102593.00
2019-03-21T16:10:28.844Z,102593.44
2019-03-21T16:13:02.987Z,102592.99
2019-03-21T16:15:37.076Z,102591.64
2019-03-21T16:18:11.307Z,102595.19
2019-03-21T16:20:45.733Z,102588.16
2019-03-21T16:23:19.829Z,102584.61
2019-03-21T16:25:54.761Z,102575.80
2019-03-21T16:28:28.874Z,102589.43
2019-03-21T16:31:02.914Z,102581.05
2019-03-21T16:33:37.072Z,102583.26
2019-03-21T16:36:11.072Z,102593.38
2019-03-21T16:38:46.146Z,102592.93
2019-03-21T16:41:20.250Z,102587.61
2019-03-21T16:44:02.139Z,102588.93
2019-03-21T16:46:36.559Z,102588.04
2019-03-21T16:49:10.772Z,102584.09
2019-03-21T16:51:44.979Z,102592.45
2019-03-21T16:54:19.402Z,102592.42
2019-03-21T16:56:53.503Z,102588.48
2019-03-21T16:59:27.553Z,102582.73
2019-03-21T17:02:01.611Z,102582.27
2019-03-21T17:04:36.436Z,102584.45
2019-03-21T17:07:13.596Z,102585.31
2019-03-21T17:09:49.119Z,102598.94
2019-03-21T17:12:23.243Z,102599.80
2019-03-21T17:14:58.509Z,102607.72
2019-03-21T17:17:32.577Z,102602.42
2019-03-21T17:20:07.071Z,102612.55
2019-03-21T17:22:41.162Z,102607.27
2019-03-21T17:25:15.189Z,102607.27
2019-03-21T17:27:49.623Z,102602.84
2019-03-21T17:30:23.916Z,102602.86
2019-03-21T17:32:57.995Z,102601.55
2019-03-21T17:35:32.048Z,102612.55
2019-03-21T17:38:07.168Z,102609.88
2019-03-21T17:40:41.413Z,102608.13
2019-03-21T17:43:15.847Z,102609.43
2019-03-21T17:45:49.948Z,102612.50
2019-03-21T17:48:24.163Z,102616.87
2019-03-21T17:50:58.471Z,102616.00
2019-03-21T17:53:42.014Z,102623.47
2019-03-21T17:56:16.188Z,102632.25
2019-03-21T17:58:50.335Z,102627.02
2019-03-21T18:01:24.434Z,102624.36
2019-03-21T18:03:58.529Z,102626.52
2019-03-21T18:06:32.557Z,102634.84
2019-03-21T18:09:08.380Z,102642.34
2019-03-21T18:11:42.468Z,102640.55
2019-03-21T18:14:18.097Z,102635.22
2019-03-21T18:16:52.295Z,102638.78
2019-03-21T18:19:26.372Z,102639.66
2019-03-21T18:22:01.841Z,102633.49
2019-03-21T18:24:36.084Z,102637.88
2019-03-21T18:27:10.203Z,102632.58
2019-03-21T18:30:15.882Z,102631.67
2019-03-21T18:32:50.339Z,102629.89
2019-03-21T18:35:24.436Z,102629.86
2019-03-21T18:37:58.633Z,102628.10
2019-03-21T18:40:32.834Z,102630.23
2019-03-21T18:43:07.067Z,102639.03
2019-03-21T18:45:41.581Z,102630.69
2019-03-21T18:48:16.396Z,102632.33
2019-03-21T18:50:50.632Z,102627.08
2019-03-21T18:53:25.034Z,102637.64
2019-03-21T18:56:00.195Z,102640.26
2019-03-21T18:58:34.340Z,102633.23
2019-03-21T19:01:08.591Z,102638.95
2019-03-21T19:03:43.320Z,102638.06
2019-03-21T19:06:17.449Z,102642.47
2019-03-21T19:08:51.670Z,102636.81
2019-03-21T19:11:26.123Z,102644.63
2019-03-21T19:14:00.260Z,102650.81
2019-03-21T19:16:34.440Z,102645.95
2019-03-21T19:19:08.570Z,102642.00
2019-03-21T19:21:42.795Z,102645.08
2019-03-21T19:24:16.923Z,102638.91
2019-03-21T19:26:51.136Z,102650.79
2019-03-21T19:29:25.258Z,102646.38
2019-03-21T19:31:59.555Z,102649.02
2019-03-21T19:34:34.047Z,102648.14
2019-03-21T19:37:08.245Z,102643.72
2019-03-21T19:39:42.417Z,102645.88
2019-03-21T19:42:16.665Z,102637.08
2019-03-21T19:44:50.774Z,102637.95
2019-03-21T19:47:30.199Z,102628.76
2019-03-21T19:50:10.148Z,102620.41
2019-03-21T19:52:49.046Z,102626.09
2019-03-21T19:55:30.690Z,102629.17
2019-03-21T19:57:58.998Z,102634.91
2019-03-21T20:00:33.220Z,102630.05
2019-03-21T20:03:07.441Z,102619.52
2019-03-21T20:05:43.050Z,102616.87
2019-03-21T20:08:17.349Z,102615.95
2019-03-21T20:10:51.615Z,102613.78
2019-03-21T20:13:25.991Z,102614.17
2019-03-21T20:16:00.430Z,102619.87
2019-03-21T20:18:36.132Z,102629.99
2019-03-21T20:21:10.453Z,102619.45
2019-03-21T20:23:45.346Z,102624.33
2019-03-21T20:26:19.889Z,102623.91
2019-03-21T20:28:53.940Z,102621.23
2019-03-21T20:31:28.077Z,102625.16
2019-03-21T20:34:02.246Z,102626.45
2019-03-21T20:36:36.357Z,102629.02
2019-03-21T20:39:11.303Z,102631.67
2019-03-21T20:41:45.325Z,102625.05
2019-03-21T20:44:41.162Z,102622.84
2019-03-21T20:47:20.405Z,102622.81
2019-03-21T20:49:54.534Z,102627.58
2019-03-21T20:52:28.797Z,102624.50
2019-03-21T20:55:03.446Z,102629.75
2019-03-21T20:57:37.605Z,102623.14
2019-03-21T21:00:18.350Z,102622.27
2019-03-21T21:02:53.556Z,102620.95
2019-03-21T21:05:27.773Z,102620.06
2019-03-21T21:08:01.948Z,102627.97
2019-03-21T21:10:38.425Z,102628.44
2019-03-21T21:13:16.370Z,102623.11
2019-03-21T21:15:50.885Z,102626.17
2019-03-21T21:18:25.049Z,102627.48
2019-03-21T21:20:59.355Z,102626.13
2019-03-21T21:23:33.592Z,102627.02
2019-03-21T21:26:08.427Z,102629.14
2019-03-21T21:28:43.090Z,102636.58
2019-03-21T21:31:17.655Z,102628.25
2019-03-21T21:33:51.916Z,102628.25
2019-03-21T21:36:26.160Z,102629.13
2019-03-21T21:39:00.494Z,102620.80
2019-03-21T21:41:35.030Z,102623.44
2019-03-21T21:44:09.273Z,102629.14
2019-03-21T21:46:43.495Z,102631.34
2019-03-21T21:49:18.267Z,102634.83
2019-03-21T21:51:52.398Z,102618.51
2019-03-21T21:54:26.779Z,102634.41
2019-03-21T21:57:01.315Z,102633.09
2019-03-21T21:59:35.303Z,102633.56
2019-03-21T22:02:09.314Z,102630.02
2019-03-21T22:04:43.298Z,102621.66
2019-03-21T22:07:17.582Z,102626.48
2019-03-21T22:09:51.568Z,102626.87
2019-03-21T22:12:25.479Z,102622.91
2019-03-21T22:14:59.416Z,102632.14
2019-03-21T22:17:33.401Z,102626.83
2019-03-21T22:20:08.172Z,102624.22
2019-03-21T22:22:42.143Z,102615.83
2019-03-21T22:25:19.487Z,102627.70
2019-03-21T22:27:56.236Z,102621.11
2019-03-21T22:30:30.107Z,102621.56
2019-03-21T22:33:04.131Z,102624.66
2019-03-21T22:35:38.119Z,102612.34
2019-03-21T22:38:12.126Z,102613.63
2019-03-21T22:40:46.071Z,102616.27
2019-03-21T22:43:20.110Z,102616.24
2019-03-21T22:45:54.106Z,102617.97
2019-03-21T22:48:28.090Z,102610.48
2019-03-21T22:51:02.038Z,102615.69
2019-03-21T22:53:36.075Z,102619.65
2019-03-21T22:56:10.037Z,102624.85
2019-03-21T22:58:44.023Z,102625.70
2019-03-21T23:01:18.420Z,102617.78
2019-03-21T23:03:52.356Z,102615.15
2019-03-21T23:06:26.298Z,102611.20
2019-03-21T23:09:00.210Z,102620.39
2019-03-21T23:11:34.160Z,102618.19
2019-03-21T23:14:08.179Z,102612.89
2019-03-21T23:16:42.144Z,102614.22
2019-03-21T23:19:16.183Z,102619.89
2019-03-21T23:21:51.145Z,102608.95
2019-03-21T23:24:25.147Z,102612.02
2019-03-21T23:26:59.189Z,102603.69
2019-03-21T23:29:33.197Z,102604.56
2019-03-21T23:32:07.147Z,102599.68
2019-03-21T23:34:41.063Z,102601.44
2019-03-21T23:37:16.038Z,102604.04
2019-03-21T23:39:50.038Z,102608.43
2019-03-21T23:42:24.130Z,102612.32
2019-03-21T23:44:58.122Z,102608.28
2019-03-21T23:47:32.076Z,102606.50
2019-03-21T23:50:06.351Z,102607.72
2019-03-21T23:52:40.305Z,102607.22
2019-03-21T23:55:14.299Z,102600.59
2019-03-21T23:57:48.762Z,102610.64
